createdAt,value
2022-09-18T00:01:11.843Z,7.00
2022-09-18T00:03:39.777Z,5.63
2022-09-18T00:06:11.798Z,4.00
2022-09-18T00:08:40.055Z,5.97
2022-09-18T00:11:09.704Z,2.73
2022-09-18T00:13:39.191Z,2.73
2022-09-18T00:16:09.083Z,5.43
2022-09-18T00:18:36.948Z,1.47
2022-09-18T00:21:06.221Z,6.27
2022-09-18T00:23:36.168Z,5.30
2022-09-18T00:26:04.569Z,10.63
2022-09-18T00:28:32.726Z,4.70
2022-09-18T00:31:05.742Z,7.83
2022-09-18T00:33:33.777Z,8.37
2022-09-18T00:36:03.042Z,11.47
2022-09-18T00:38:32.741Z,4.47
2022-09-18T00:41:03.459Z,3.40
2022-09-18T00:43:34.777Z,7.13
2022-09-18T00:46:06.543Z,7.60
2022-09-18T00:48:41.504Z,4.63
2022-09-18T00:51:09.929Z,7.87
2022-09-18T00:53:41.740Z,5.20
2022-09-18T00:56:15.893Z,6.57
2022-09-18T00:58:44.696Z,9.53
2022-09-18T01:01:12.750Z,6.30
2022-09-18T01:03:40.465Z,3.60
2022-09-18T01:09:09.345Z,5.73
2022-09-18T01:11:48.104Z,6.33
2022-09-18T01:14:28.999Z,1.60
2022-09-18T01:17:03.939Z,8.20
2022-09-18T01:19:45.228Z,7.27
2022-09-18T01:22:33.025Z,6.30
2022-09-18T01:25:19.039Z,12.23
2022-09-18T01:28:17.681Z,9.90
2022-09-18T01:30:49.784Z,12.00
2022-09-18T01:33:25.979Z,12.23
2022-09-18T01:35:58.350Z,13.10
2022-09-18T01:38:31.432Z,10.93
2022-09-18T01:41:03.847Z,9.93
2022-09-18T01:43:34.144Z,16.83
2022-09-18T01:46:08.100Z,17.07
2022-09-18T01:48:41.950Z,13.33
2022-09-18T01:51:15.136Z,15.30
2022-09-18T01:53:46.184Z,12.50
2022-09-18T01:56:19.148Z,10.93
2022-09-18T01:58:52.929Z,11.40
2022-09-18T02:01:23.443Z,17.40
2022-09-18T02:03:57.479Z,12.80
2022-09-18T02:06:30.130Z,13.43
2022-09-18T02:09:00.833Z,12.30
2022-09-18T02:11:28.988Z,13.67
2022-09-18T02:14:05.601Z,12.60
2022-09-18T02:16:36.309Z,13.07
2022-09-18T02:19:08.976Z,13.43
2022-09-18T02:21:38.061Z,14.73
2022-09-18T02:24:10.031Z,9.83
2022-09-18T02:26:43.438Z,14.13
2022-09-18T02:29:14.873Z,16.67
2022-09-18T02:31:42.675Z,19.37
2022-09-18T02:34:13.290Z,12.57
2022-09-18T02:37:02.705Z,17.87
2022-09-18T02:39:57.422Z,13.60
2022-09-18T02:42:41.157Z,13.73
2022-09-18T02:45:20.689Z,16.33
2022-09-18T02:48:06.527Z,12.47
2022-09-18T02:50:41.657Z,14.77
2022-09-18T02:53:14.733Z,22.10
2022-09-18T02:55:47.215Z,19.63
2022-09-18T02:58:22.821Z,11.63
2022-09-18T03:00:53.065Z,16.17
2022-09-18T03:03:20.833Z,14.70
2022-09-18T03:05:48.543Z,13.53
2022-09-18T03:08:16.649Z,8.90
2022-09-18T03:10:44.320Z,13.27
2022-09-18T03:13:13.288Z,14.30
2022-09-18T03:15:41.304Z,7.50
2022-09-18T03:18:10.340Z,12.67
2022-09-18T03:20:38.051Z,13.07
2022-09-18T03:23:05.744Z,13.60
2022-09-18T03:25:33.467Z,11.13
2022-09-18T03:28:01.145Z,10.03
2022-09-18T03:30:28.877Z,9.40
2022-09-18T03:32:56.561Z,7.93
2022-09-18T03:35:25.684Z,14.67
2022-09-18T03:37:54.917Z,11.23
2022-09-18T03:40:22.777Z,16.93
2022-09-18T03:42:50.795Z,11.00
2022-09-18T03:45:18.680Z,13.17
2022-09-18T03:47:46.757Z,10.93
2022-09-18T03:50:15.059Z,13.17
2022-09-18T03:52:46.650Z,10.87
2022-09-18T03:55:21.171Z,13.80
2022-09-18T03:57:49.149Z,11.30
2022-09-18T04:00:17.255Z,7.83
2022-09-18T04:02:45.373Z,14.73
2022-09-18T04:05:13.142Z,13.07
2022-09-18T04:07:40.895Z,13.83
2022-09-18T04:10:10.519Z,9.97
2022-09-18T04:12:38.284Z,16.43
2022-09-18T04:15:06.703Z,7.93
2022-09-18T04:17:34.426Z,11.87
2022-09-18T04:20:02.319Z,9.97
2022-09-18T04:22:30.062Z,9.17
2022-09-18T04:24:57.815Z,5.77
2022-09-18T04:27:26.918Z,6.70
2022-09-18T04:29:54.639Z,5.17
2022-09-18T04:32:22.448Z,7.60
2022-09-18T04:34:50.113Z,10.60
2022-09-18T04:37:17.786Z,10.27
2022-09-18T04:39:49.682Z,9.53
2022-09-18T04:42:17.417Z,8.43
2022-09-18T04:44:47.268Z,12.87
2022-09-18T04:47:15.122Z,10.47
2022-09-18T04:49:42.863Z,5.50
2022-09-18T04:52:10.641Z,11.47
2022-09-18T04:54:38.503Z,10.83
2022-09-18T04:57:06.369Z,10.80
2022-09-18T04:59:34.107Z,13.80
2022-09-18T05:02:03.364Z,12.17
2022-09-18T05:04:31.495Z,10.50
2022-09-18T05:06:59.191Z,6.03
2022-09-18T05:09:26.917Z,9.00
2022-09-18T05:11:55.012Z,8.73
2022-09-18T05:14:22.722Z,7.80
2022-09-18T05:16:50.423Z,11.97
2022-09-18T05:19:19.502Z,13.17
2022-09-18T05:21:50.060Z,10.63
2022-09-18T05:24:18.477Z,11.10
2022-09-18T05:26:46.244Z,12.10
2022-09-18T05:29:14.512Z,7.90
2022-09-18T05:31:42.887Z,9.70
2022-09-18T05:34:10.643Z,13.07
2022-09-18T05:36:39.673Z,9.90
2022-09-18T05:39:07.396Z,9.13
2022-09-18T05:41:35.223Z,6.93
2022-09-18T05:44:03.438Z,9.67
2022-09-18T05:46:31.138Z,10.70
2022-09-18T05:48:59.823Z,10.13
2022-09-18T05:51:27.527Z,7.73
2022-09-18T05:53:56.581Z,7.63
2022-09-18T05:56:24.363Z,7.13
2022-09-18T05:58:52.060Z,7.17
2022-09-18T06:01:19.813Z,8.83
2022-09-18T06:03:50.370Z,6.67
2022-09-18T06:06:18.469Z,7.00
2022-09-18T06:08:46.125Z,6.90
2022-09-18T06:11:15.568Z,11.77
2022-09-18T06:13:44.464Z,8.17
2022-09-18T06:16:12.227Z,5.93
2022-09-18T06:18:43.328Z,6.00
2022-09-18T06:21:14.980Z,7.13
2022-09-18T06:23:43.087Z,9.97
2022-09-18T06:26:14.733Z,4.47
2022-09-18T06:28:44.237Z,5.50
2022-09-18T06:31:12.200Z,5.90
2022-09-18T06:33:39.939Z,5.43
2022-09-18T06:36:13.971Z,12.80
2022-09-18T06:38:51.544Z,7.80
2022-09-18T06:41:19.882Z,8.70
2022-09-18T06:43:50.233Z,2.70
2022-09-18T06:46:18.256Z,7.33
2022-09-18T06:48:46.016Z,5.47
2022-09-18T06:51:13.749Z,9.70
2022-09-18T06:53:41.409Z,6.03
2022-09-18T06:56:09.128Z,9.50
2022-09-18T06:58:36.812Z,4.83
2022-09-18T07:01:06.147Z,5.70
2022-09-18T07:03:33.859Z,4.07
2022-09-18T07:06:01.577Z,9.13
2022-09-18T07:08:30.626Z,6.50
2022-09-18T07:11:01.433Z,4.17
2022-09-18T07:13:31.436Z,5.07
2022-09-18T07:15:59.570Z,3.60
2022-09-18T07:18:28.642Z,7.33
2022-09-18T07:20:56.370Z,6.80
2022-09-18T07:23:24.277Z,5.77
2022-09-18T07:25:51.971Z,9.37
2022-09-18T07:28:19.784Z,4.77
2022-09-18T07:30:47.600Z,6.27
2022-09-18T07:33:15.303Z,9.27
2022-09-18T07:35:44.385Z,5.77
2022-09-18T07:38:12.056Z,7.77
2022-09-18T07:40:41.243Z,4.47
2022-09-18T07:43:10.612Z,8.03
2022-09-18T07:45:38.935Z,7.30
2022-09-18T07:48:08.570Z,4.97
2022-09-18T07:50:36.375Z,3.80
2022-09-18T07:53:05.947Z,7.47
2022-09-18T07:55:36.685Z,5.10
2022-09-18T07:58:06.417Z,8.07
2022-09-18T08:00:36.697Z,5.37
2022-09-18T08:03:05.225Z,4.73
2022-09-18T08:05:33.182Z,7.27
2022-09-18T08:08:06.206Z,7.13
2022-09-18T08:10:35.542Z,5.90
2022-09-18T08:13:03.778Z,5.53
2022-09-18T08:15:31.777Z,9.27
2022-09-18T08:17:59.578Z,6.43
2022-09-18T08:20:27.276Z,3.80
2022-09-18T08:22:54.991Z,3.97
2022-09-18T08:25:24.056Z,6.17
2022-09-18T08:27:52.025Z,8.17
2022-09-18T08:30:20.218Z,4.73
2022-09-18T08:32:47.919Z,6.77
2022-09-18T08:35:15.632Z,6.10
2022-09-18T08:37:49.561Z,5.77
2022-09-18T08:40:19.736Z,7.63
2022-09-18T08:43:06.290Z,6.73
2022-09-18T08:45:46.134Z,9.00
2022-09-18T08:48:18.790Z,8.40
2022-09-18T08:50:56.066Z,7.13
2022-09-18T08:53:31.499Z,6.97
2022-09-18T08:56:01.373Z,4.43
2022-09-18T08:58:36.445Z,8.00
2022-09-18T09:01:09.179Z,3.70
2022-09-18T09:03:47.806Z,6.13
2022-09-18T09:06:29.609Z,3.43
2022-09-18T09:09:21.530Z,5.37
2022-09-18T09:11:56.928Z,3.90
2022-09-18T09:14:56.508Z,4.13
2022-09-18T09:17:39.792Z,7.10
2022-09-18T09:20:21.405Z,5.00
2022-09-18T09:23:03.463Z,2.93
2022-09-18T09:25:39.275Z,4.70
2022-09-18T09:28:16.833Z,4.53
2022-09-18T09:30:56.607Z,11.03
2022-09-18T09:33:37.609Z,4.83
2022-09-18T09:36:14.322Z,4.33
2022-09-18T09:38:50.069Z,4.47
2022-09-18T09:41:30.396Z,6.43
2022-09-18T09:44:13.589Z,4.47
2022-09-18T09:46:53.105Z,5.47
2022-09-18T09:49:26.733Z,5.83
2022-09-18T09:52:10.829Z,4.57
2022-09-18T09:54:39.194Z,3.50
2022-09-18T09:57:24.680Z,3.80
2022-09-18T10:00:05.027Z,3.57
2022-09-18T10:02:51.343Z,4.67
2022-09-18T10:05:26.593Z,3.63
2022-09-18T10:08:02.448Z,4.27
2022-09-18T10:10:38.560Z,2.50
2022-09-18T10:13:13.448Z,5.37
2022-09-18T10:15:44.133Z,8.17
2022-09-18T10:18:17.636Z,6.07
2022-09-18T10:20:47.276Z,5.23
2022-09-18T10:23:25.430Z,5.50
2022-09-18T10:25:57.895Z,3.87
2022-09-18T10:28:29.420Z,6.03
2022-09-18T10:31:02.475Z,2.53
2022-09-18T10:33:37.522Z,4.63
2022-09-18T10:36:16.177Z,2.93
2022-09-18T10:38:44.140Z,3.37
2022-09-18T10:41:19.311Z,4.47
2022-09-18T10:43:57.681Z,2.77
2022-09-18T10:46:31.098Z,2.57
2022-09-18T10:49:05.035Z,2.83
2022-09-18T10:51:32.755Z,5.03
2022-09-18T10:54:06.625Z,3.27
2022-09-18T10:56:34.398Z,5.33
2022-09-18T10:59:30.165Z,3.57
2022-09-18T11:01:58.928Z,2.53
2022-09-18T11:04:30.527Z,4.03
2022-09-18T11:06:58.961Z,2.37
2022-09-18T11:09:32.933Z,2.40
2022-09-18T11:12:01.104Z,1.57
2022-09-18T11:14:32.264Z,3.23
2022-09-18T11:17:02.070Z,2.00
2022-09-18T11:19:35.164Z,2.73
2022-09-18T11:22:06.638Z,3.67
2022-09-18T11:24:36.795Z,2.20
2022-09-18T11:27:20.191Z,2.03
2022-09-18T11:29:48.007Z,3.53
2022-09-18T11:32:20.059Z,4.27
2022-09-18T11:34:51.966Z,1.90
2022-09-18T11:37:29.853Z,3.50
2022-09-18T11:40:02.089Z,1.87
2022-09-18T11:42:31.537Z,1.30
2022-09-18T11:45:17.219Z,2.03
2022-09-18T11:47:51.142Z,1.77
2022-09-18T11:50:22.983Z,3.43
2022-09-18T11:52:55.358Z,4.10
2022-09-18T11:55:30.369Z,4.03
2022-09-18T11:58:02.636Z,3.83
2022-09-18T12:00:35.675Z,1.70
2022-09-18T12:03:14.736Z,3.40
2022-09-18T12:05:53.485Z,2.00
2022-09-18T12:08:28.088Z,1.37
2022-09-18T12:11:08.139Z,3.57
2022-09-18T12:13:48.443Z,1.70
2022-09-18T12:16:21.766Z,3.93
2022-09-18T12:18:58.964Z,3.10
2022-09-18T12:21:37.459Z,5.80
2022-09-18T12:24:13.101Z,2.50
2022-09-18T12:26:49.607Z,4.13
2022-09-18T12:29:36.122Z,6.37
2022-09-18T12:32:18.596Z,9.20
2022-09-18T12:34:52.342Z,2.73
2022-09-18T12:37:38.253Z,2.33
2022-09-18T12:40:36.907Z,3.63
2022-09-18T12:43:33.486Z,2.93
2022-09-18T12:46:21.280Z,4.23
2022-09-18T12:49:05.907Z,4.20
2022-09-18T12:51:43.143Z,2.90
2022-09-18T12:54:42.766Z,2.50
2022-09-18T12:57:28.039Z,3.37
2022-09-18T13:00:00.563Z,2.57
2022-09-18T13:02:47.104Z,3.30
2022-09-18T13:05:22.899Z,1.90
2022-09-18T13:07:56.284Z,3.57
2022-09-18T13:10:28.939Z,4.90
2022-09-18T13:13:01.472Z,9.23
2022-09-18T13:15:34.710Z,2.70
2022-09-18T13:18:17.326Z,2.47
2022-09-18T13:20:46.750Z,4.70
2022-09-18T13:23:18.836Z,3.30
2022-09-18T13:25:50.825Z,2.63
2022-09-18T13:28:21.966Z,5.03
2022-09-18T13:31:11.319Z,1.97
2022-09-18T13:33:39.139Z,12.50
2022-09-18T13:36:07.268Z,2.80
2022-09-18T13:38:35.165Z,3.03
2022-09-18T13:41:08.460Z,4.53
2022-09-18T13:43:42.605Z,2.97
2022-09-18T13:46:29.068Z,2.20
2022-09-18T13:48:57.332Z,1.13
2022-09-18T13:51:31.283Z,4.77
2022-09-18T13:54:20.857Z,3.17
2022-09-18T13:57:20.145Z,2.27
2022-09-18T13:59:55.558Z,2.30
2022-09-18T14:02:28.580Z,2.83
2022-09-18T14:05:05.221Z,2.63
2022-09-18T14:07:51.771Z,4.53
2022-09-18T14:10:24.717Z,1.47
2022-09-18T14:13:31.044Z,2.00
2022-09-18T14:16:03.851Z,1.43
2022-09-18T14:18:34.300Z,2.33
2022-09-18T14:21:16.136Z,4.30
2022-09-18T14:24:06.436Z,3.03
2022-09-18T14:26:57.351Z,1.00
2022-09-18T14:29:29.241Z,1.63
2022-09-18T14:31:58.950Z,2.20
2022-09-18T14:34:33.840Z,4.07
2022-09-18T14:37:19.598Z,1.40
2022-09-18T14:39:47.613Z,1.60
2022-09-18T14:42:31.930Z,2.87
2022-09-18T14:45:21.389Z,1.67
2022-09-18T14:47:49.997Z,2.23
2022-09-18T14:50:30.765Z,1.63
2022-09-18T14:53:00.299Z,1.03
2022-09-18T14:55:32.364Z,2.10
2022-09-18T14:58:05.490Z,2.27
2022-09-18T15:00:36.730Z,2.30
2022-09-18T15:03:08.896Z,1.73
2022-09-18T15:05:37.861Z,1.30
2022-09-18T15:08:09.127Z,1.23
2022-09-18T15:10:40.347Z,3.40
2022-09-18T15:13:10.557Z,1.03
2022-09-18T15:15:40.740Z,1.13
2022-09-18T15:18:19.507Z,3.33
2022-09-18T15:20:51.455Z,3.57
2022-09-18T15:23:20.644Z,2.50
2022-09-18T15:25:53.296Z,2.10
2022-09-18T15:28:22.849Z,2.27
2022-09-18T15:30:57.276Z,2.90
2022-09-18T15:33:26.363Z,1.17
2022-09-18T15:35:56.461Z,1.80
2022-09-18T15:38:31.817Z,3.90
2022-09-18T15:40:59.532Z,2.83
2022-09-18T15:43:43.614Z,1.60
2022-09-18T15:46:24.691Z,2.87
2022-09-18T15:48:53.059Z,3.20
2022-09-18T15:51:25.206Z,1.20
2022-09-18T15:54:05.487Z,2.00
2022-09-18T15:56:35.033Z,0.83
2022-09-18T15:59:04.861Z,1.37
2022-09-18T16:01:36.978Z,1.13
2022-09-18T16:04:16.983Z,2.70
2022-09-18T16:06:52.411Z,1.70
2022-09-18T16:09:30.643Z,1.43
2022-09-18T16:12:00.712Z,4.07
2022-09-18T16:15:01.802Z,3.47
2022-09-18T16:17:53.869Z,2.10
2022-09-18T16:20:30.399Z,2.90
2022-09-18T16:23:06.806Z,1.03
2022-09-18T16:25:37.469Z,1.80
2022-09-18T16:28:20.692Z,1.53
2022-09-18T16:30:48.500Z,2.57
2022-09-18T16:33:19.892Z,1.10
2022-09-18T16:35:48.338Z,1.70
2022-09-18T16:38:16.049Z,2.20
2022-09-18T16:40:44.253Z,1.13
2022-09-18T16:43:11.959Z,0.80
2022-09-18T16:45:39.690Z,2.40
2022-09-18T16:48:07.620Z,1.00
2022-09-18T16:50:37.486Z,1.13
2022-09-18T16:53:05.798Z,1.40
2022-09-18T16:55:34.113Z,2.63
2022-09-18T16:58:02.045Z,7.93
2022-09-18T17:00:29.933Z,1.67
2022-09-18T17:02:57.882Z,1.60
2022-09-18T17:05:25.665Z,0.93
2022-09-18T17:07:54.679Z,1.00
2022-09-18T17:10:22.411Z,2.67
2022-09-18T17:12:50.138Z,1.93
2022-09-18T17:15:18.056Z,1.13
2022-09-18T17:17:46.467Z,4.80
2022-09-18T17:20:17.858Z,1.47
2022-09-18T17:22:45.918Z,1.33
2022-09-18T17:25:16.195Z,2.00
2022-09-18T17:27:44.277Z,2.60
2022-09-18T17:30:12.859Z,2.17
2022-09-18T17:32:40.677Z,3.97
2022-09-18T17:35:08.954Z,1.90
2022-09-18T17:37:36.863Z,0.90
2022-09-18T17:40:05.033Z,0.97
2022-09-18T17:42:35.575Z,1.00
2022-09-18T17:45:03.333Z,1.57
2022-09-18T17:47:31.048Z,1.73
2022-09-18T17:49:58.721Z,2.13
2022-09-18T17:52:26.611Z,1.93
2022-09-18T17:54:54.318Z,2.77
2022-09-18T17:57:24.118Z,2.60
2022-09-18T17:59:53.183Z,1.60
2022-09-18T18:02:21.363Z,1.10
2022-09-18T18:04:49.384Z,1.20
2022-09-18T18:07:17.152Z,3.97
2022-09-18T18:09:44.926Z,1.37
2022-09-18T18:12:12.839Z,1.07
2022-09-18T18:14:41.615Z,1.87
2022-09-18T18:17:11.600Z,0.90
2022-09-18T18:19:39.435Z,2.67
2022-09-18T18:22:07.179Z,1.57
2022-09-18T18:24:35.303Z,1.00
2022-09-18T18:27:03.039Z,2.30
2022-09-18T18:29:30.794Z,1.03
2022-09-18T18:32:00.278Z,1.57
2022-09-18T18:34:31.439Z,3.33
2022-09-18T18:37:00.611Z,1.57
2022-09-18T18:39:28.298Z,2.77
2022-09-18T18:41:56.038Z,3.20
2022-09-18T18:44:23.813Z,1.77
2022-09-18T18:46:51.542Z,2.33
2022-09-18T18:49:19.427Z,1.60
2022-09-18T18:51:51.810Z,0.93
2022-09-18T18:54:21.311Z,1.53
2022-09-18T18:56:50.410Z,1.00
2022-09-18T18:59:20.922Z,1.30
2022-09-18T19:01:49.185Z,1.83
2022-09-18T19:04:20.031Z,4.27
2022-09-18T19:06:50.230Z,1.27
2022-09-18T19:09:20.684Z,2.83
2022-09-18T19:11:49.587Z,1.60
2022-09-18T19:14:19.427Z,2.00
2022-09-18T19:16:48.307Z,1.50
2022-09-18T19:19:17.646Z,1.40
2022-09-18T19:21:45.777Z,1.63
2022-09-18T19:24:15.658Z,1.83
2022-09-18T19:26:44.002Z,1.10
2022-09-18T19:29:14.603Z,1.10
2022-09-18T19:31:44.655Z,2.43
2022-09-18T19:34:14.329Z,4.93
2022-09-18T19:36:43.443Z,0.97
2022-09-18T19:39:14.354Z,2.03
2022-09-18T19:41:46.697Z,1.83
2022-09-18T19:44:22.780Z,1.70
2022-09-18T19:46:51.763Z,1.30
2022-09-18T19:49:21.693Z,1.30
2022-09-18T19:51:50.179Z,1.37
2022-09-18T19:54:19.770Z,2.10
2022-09-18T19:56:48.497Z,2.10
2022-09-18T19:59:17.386Z,1.20
2022-09-18T20:01:45.684Z,1.40
2022-09-18T20:04:13.704Z,3.50
2022-09-18T20:06:42.581Z,3.03
2022-09-18T20:09:10.551Z,3.87
2022-09-18T20:11:40.156Z,2.43
2022-09-18T20:14:07.855Z,20.70
2022-09-18T20:16:37.492Z,1.83
2022-09-18T20:19:06.640Z,4.17
2022-09-18T20:21:35.967Z,2.73
2022-09-18T20:24:06.186Z,1.60
2022-09-18T20:26:33.894Z,1.40
2022-09-18T20:29:04.721Z,1.20
2022-09-18T20:31:33.711Z,2.60
2022-09-18T20:34:02.536Z,1.43
2022-09-18T20:36:31.996Z,1.43
2022-09-18T20:39:03.542Z,2.77
2022-09-18T20:41:31.557Z,1.97
2022-09-18T20:44:04.871Z,1.40
2022-09-18T20:46:37.391Z,3.20
2022-09-18T20:49:06.356Z,2.67
2022-09-18T20:51:35.938Z,2.40
2022-09-18T20:54:08.071Z,1.30
2022-09-18T20:56:41.274Z,1.40
2022-09-18T20:59:10.528Z,1.10
2022-09-18T21:01:42.125Z,1.50
2022-09-18T21:04:17.423Z,1.37
2022-09-18T21:06:47.019Z,1.77
2022-09-18T21:09:15.393Z,1.40
2022-09-18T21:11:44.743Z,1.70
2022-09-18T21:14:15.370Z,1.50
2022-09-18T21:16:45.280Z,1.33
2022-09-18T21:19:14.447Z,1.43
2022-09-18T21:21:42.191Z,3.20
2022-09-18T21:24:10.166Z,3.30
2022-09-18T21:26:39.739Z,1.87
2022-09-18T21:29:11.230Z,1.83
2022-09-18T21:31:42.449Z,2.73
2022-09-18T21:34:13.264Z,1.40
2022-09-18T21:36:43.374Z,1.27
2022-09-18T21:39:12.603Z,2.37
2022-09-18T21:41:42.087Z,3.10
2022-09-18T21:44:11.854Z,1.00
2022-09-18T21:46:40.306Z,1.03
2022-09-18T21:49:09.393Z,2.13
2022-09-18T21:51:41.165Z,4.00
2022-09-18T21:54:11.228Z,1.10
2022-09-18T21:56:38.897Z,2.47
2022-09-18T21:59:08.934Z,3.30
2022-09-18T22:01:38.051Z,6.63
2022-09-18T22:04:07.309Z,1.67
2022-09-18T22:06:38.855Z,2.83
2022-09-18T22:09:09.955Z,2.37
2022-09-18T22:11:38.164Z,1.23
2022-09-18T22:14:09.606Z,1.30
2022-09-18T22:16:38.358Z,2.03
2022-09-18T22:19:08.385Z,1.83
2022-09-18T22:21:38.024Z,1.67
2022-09-18T22:24:10.678Z,4.87
2022-09-18T22:26:40.341Z,2.93
2022-09-18T22:29:09.805Z,2.23
2022-09-18T22:31:39.328Z,2.20
2022-09-18T22:34:07.560Z,1.37
2022-09-18T22:36:35.251Z,1.30
2022-09-18T22:39:02.976Z,0.90
2022-09-18T22:41:32.011Z,2.40
2022-09-18T22:43:59.663Z,1.93
2022-09-18T22:46:27.738Z,1.10
2022-09-18T22:48:55.600Z,3.50
2022-09-18T22:51:27.164Z,1.40
2022-09-18T22:53:57.161Z,3.00
2022-09-18T22:56:26.701Z,2.00
2022-09-18T22:58:57.464Z,1.90
2022-09-18T23:01:28.875Z,1.00
2022-09-18T23:03:57.919Z,2.07
2022-09-18T23:06:27.436Z,0.90
2022-09-18T23:08:57.424Z,4.67
2022-09-18T23:11:27.456Z,0.70
2022-09-18T23:13:59.121Z,2.63
2022-09-18T23:16:30.694Z,0.90
2022-09-18T23:19:00.914Z,1.13
2022-09-18T23:21:31.558Z,1.00
2022-09-18T23:24:00.572Z,0.80
2022-09-18T23:26:30.014Z,1.00
2022-09-18T23:29:00.835Z,1.63
2022-09-18T23:31:30.196Z,0.97
2022-09-18T23:33:59.968Z,0.77
2022-09-18T23:36:30.281Z,0.70
2022-09-18T23:39:00.626Z,0.90
2022-09-18T23:41:30.031Z,1.10
2022-09-18T23:43:59.052Z,1.20
2022-09-18T23:46:26.819Z,0.90
2022-09-18T23:48:55.791Z,0.80
2022-09-18T23:51:24.490Z,0.60
2022-09-18T23:53:52.655Z,0.83
2022-09-18T23:56:20.399Z,1.00
2022-09-18T23:58:48.065Z,0.90
